sensor_id;sensor_type;location;lat;lon;timestamp;P1;durP1;ratioP1;P2;durP2;ratioP2
33074;SDS011;19433;51.292;6.868;2022-12-29T00:01:28;1.30;;;1.30;;
33074;SDS011;19433;51.292;6.868;2022-12-29T00:03:54;1.03;;;1.00;;
33074;SDS011;19433;51.292;6.868;2022-12-29T00:06:19;1.13;;;1.10;;
33074;SDS011;19433;51.292;6.868;2022-12-29T00:08:44;1.27;;;1.20;;
33074;SDS011;19433;51.292;6.868;2022-12-29T00:11:14;2.73;;;1.33;;
33074;SDS011;19433;51.292;6.868;2022-12-29T00:13:42;1.07;;;1.07;;
33074;SDS011;19433;51.292;6.868;2022-12-29T00:16:26;1.57;;;1.30;;
33074;SDS011;19433;51.292;6.868;2022-12-29T00:18:52;1.57;;;1.47;;
33074;SDS011;19433;51.292;6.868;2022-12-29T00:21:18;1.60;;;1.50;;
33074;SDS011;19433;51.292;6.868;2022-12-29T00:24:04;1.10;;;1.03;;
33074;SDS011;19433;51.292;6.868;2022-12-29T00:26:57;1.23;;;0.97;;
33074;SDS011;19433;51.292;6.868;2022-12-29T00:29:51;1.33;;;1.20;;
33074;SDS011;19433;51.292;6.868;2022-12-29T00:32:35;1.60;;;1.30;;
33074;SDS011;19433;51.292;6.868;2022-12-29T00:36:02;1.53;;;1.43;;
33074;SDS011;19433;51.292;6.868;2022-12-29T00:38:10;1.37;;;1.30;;
33074;SDS011;19433;51.292;6.868;2022-12-29T00:40:55;1.80;;;1.57;;
33074;SDS011;19433;51.292;6.868;2022-12-29T00:43:39;1.50;;;1.40;;
33074;SDS011;19433;51.292;6.868;2022-12-29T00:46:23;1.90;;;1.53;;
33074;SDS011;19433;51.292;6.868;2022-12-29T00:48:48;1.80;;;1.70;;
33074;SDS011;19433;51.292;6.868;2022-12-29T00:51:32;1.57;;;1.10;;
33074;SDS011;19433;51.292;6.868;2022-12-29T00:53:57;1.53;;;1.33;;
33074;SDS011;19433;51.292;6.868;2022-12-29T00:56:23;1.27;;;1.17;;
33074;SDS011;19433;51.292;6.868;2022-12-29T00:58:48;1.53;;;1.43;;
33074;SDS011;19433;51.292;6.868;2022-12-29T01:01:13;1.50;;;1.40;;
33074;SDS011;19433;51.292;6.868;2022-12-29T01:03:38;1.33;;;1.33;;
33074;SDS011;19433;51.292;6.868;2022-12-29T01:06:05;1.00;;;1.00;;
33074;SDS011;19433;51.292;6.868;2022-12-29T01:08:32;1.20;;;1.10;;
33074;SDS011;19433;51.292;6.868;2022-12-29T01:11:01;0.70;;;0.70;;
33074;SDS011;19433;51.292;6.868;2022-12-29T01:13:29;0.90;;;0.90;;
33074;SDS011;19433;51.292;6.868;2022-12-29T01:15:55;1.40;;;1.40;;
33074;SDS011;19433;51.292;6.868;2022-12-29T01:18:21;1.27;;;1.17;;
33074;SDS011;19433;51.292;6.868;2022-12-29T01:20:47;0.90;;;0.90;;
33074;SDS011;19433;51.292;6.868;2022-12-29T01:23:12;1.10;;;1.00;;
33074;SDS011;19433;51.292;6.868;2022-12-29T01:25:38;1.30;;;1.20;;
33074;SDS011;19433;51.292;6.868;2022-12-29T01:28:03;1.77;;;0.87;;
33074;SDS011;19433;51.292;6.868;2022-12-29T01:30:29;0.90;;;0.90;;
33074;SDS011;19433;51.292;6.868;2022-12-29T01:32:54;0.80;;;0.80;;
33074;SDS011;19433;51.292;6.868;2022-12-29T01:35:20;1.03;;;0.67;;
33074;SDS011;19433;51.292;6.868;2022-12-29T01:37:46;0.67;;;0.67;;
33074;SDS011;19433;51.292;6.868;2022-12-29T01:40:11;0.70;;;0.70;;
33074;SDS011;19433;51.292;6.868;2022-12-29T01:42:37;0.80;;;0.80;;
33074;SDS011;19433;51.292;6.868;2022-12-29T01:45:03;0.90;;;0.87;;
33074;SDS011;19433;51.292;6.868;2022-12-29T01:47:36;0.70;;;0.60;;
33074;SDS011;19433;51.292;6.868;2022-12-29T01:53:19;1.27;;;0.90;;
33074;SDS011;19433;51.292;6.868;2022-12-29T01:55:44;0.70;;;0.70;;
33074;SDS011;19433;51.292;6.868;2022-12-29T01:58:13;0.70;;;0.70;;
33074;SDS011;19433;51.292;6.868;2022-12-29T02:00:42;0.70;;;0.70;;
33074;SDS011;19433;51.292;6.868;2022-12-29T02:03:07;0.80;;;0.80;;
33074;SDS011;19433;51.292;6.868;2022-12-29T02:05:35;0.90;;;0.70;;
33074;SDS011;19433;51.292;6.868;2022-12-29T02:08:05;0.60;;;0.60;;
33074;SDS011;19433;51.292;6.868;2022-12-29T02:10:31;0.80;;;0.80;;
33074;SDS011;19433;51.292;6.868;2022-12-29T02:12:59;1.00;;;1.00;;
33074;SDS011;19433;51.292;6.868;2022-12-29T02:15:38;1.17;;;1.10;;
33074;SDS011;19433;51.292;6.868;2022-12-29T02:18:22;0.93;;;0.93;;
33074;SDS011;19433;51.292;6.868;2022-12-29T02:31:59;1.37;;;0.83;;
33074;SDS011;19433;51.292;6.868;2022-12-29T02:34:35;0.80;;;0.70;;
33074;SDS011;19433;51.292;6.868;2022-12-29T02:37:05;0.80;;;0.80;;
33074;SDS011;19433;51.292;6.868;2022-12-29T02:42:25;1.90;;;0.90;;
33074;SDS011;19433;51.292;6.868;2022-12-29T02:45:20;1.90;;;1.30;;
33074;SDS011;19433;51.292;6.868;2022-12-29T02:50:37;1.33;;;1.20;;
33074;SDS011;19433;51.292;6.868;2022-12-29T02:53:12;1.27;;;1.00;;
33074;SDS011;19433;51.292;6.868;2022-12-29T02:55:47;1.23;;;0.97;;
33074;SDS011;19433;51.292;6.868;2022-12-29T03:01:03;1.53;;;1.13;;
33074;SDS011;19433;51.292;6.868;2022-12-29T03:03:48;1.20;;;1.10;;
33074;SDS011;19433;51.292;6.868;2022-12-29T03:12:20;2.63;;;1.40;;
33074;SDS011;19433;51.292;6.868;2022-12-29T03:15:22;1.00;;;1.00;;
33074;SDS011;19433;51.292;6.868;2022-12-29T03:18:13;0.90;;;0.90;;
33074;SDS011;19433;51.292;6.868;2022-12-29T03:20:49;2.00;;;0.80;;
33074;SDS011;19433;51.292;6.868;2022-12-29T03:23:18;1.23;;;0.90;;
33074;SDS011;19433;51.292;6.868;2022-12-29T03:25:47;1.27;;;0.97;;
33074;SDS011;19433;51.292;6.868;2022-12-29T03:28:20;0.93;;;0.83;;
33074;SDS011;19433;51.292;6.868;2022-12-29T03:30:48;1.07;;;0.80;;
33074;SDS011;19433;51.292;6.868;2022-12-29T03:33:15;0.70;;;0.70;;
33074;SDS011;19433;51.292;6.868;2022-12-29T03:35:46;0.87;;;0.70;;
33074;SDS011;19433;51.292;6.868;2022-12-29T03:38:17;1.53;;;1.10;;
33074;SDS011;19433;51.292;6.868;2022-12-29T03:40:49;3.03;;;1.00;;
33074;SDS011;19433;51.292;6.868;2022-12-29T03:43:17;0.80;;;0.80;;
33074;SDS011;19433;51.292;6.868;2022-12-29T03:45:43;1.50;;;1.40;;
33074;SDS011;19433;51.292;6.868;2022-12-29T03:48:09;0.90;;;0.70;;
33074;SDS011;19433;51.292;6.868;2022-12-29T03:50:34;1.90;;;1.23;;
33074;SDS011;19433;51.292;6.868;2022-12-29T03:52:59;1.43;;;1.00;;
33074;SDS011;19433;51.292;6.868;2022-12-29T03:55:24;1.73;;;1.00;;
33074;SDS011;19433;51.292;6.868;2022-12-29T03:57:50;1.20;;;1.10;;
33074;SDS011;19433;51.292;6.868;2022-12-29T04:00:15;1.07;;;0.97;;
33074;SDS011;19433;51.292;6.868;2022-12-29T04:02:40;0.80;;;0.80;;
33074;SDS011;19433;51.292;6.868;2022-12-29T04:05:06;0.77;;;0.77;;
33074;SDS011;19433;51.292;6.868;2022-12-29T04:07:32;0.73;;;0.73;;
33074;SDS011;19433;51.292;6.868;2022-12-29T04:09:57;0.83;;;0.83;;
33074;SDS011;19433;51.292;6.868;2022-12-29T04:12:22;1.97;;;0.80;;
33074;SDS011;19433;51.292;6.868;2022-12-29T04:14:47;0.73;;;0.60;;
33074;SDS011;19433;51.292;6.868;2022-12-29T04:17:13;0.90;;;0.80;;
33074;SDS011;19433;51.292;6.868;2022-12-29T04:19:38;1.13;;;0.83;;
33074;SDS011;19433;51.292;6.868;2022-12-29T04:22:03;0.70;;;0.70;;
33074;SDS011;19433;51.292;6.868;2022-12-29T04:24:28;1.53;;;1.10;;
33074;SDS011;19433;51.292;6.868;2022-12-29T04:26:54;1.53;;;0.83;;
33074;SDS011;19433;51.292;6.868;2022-12-29T04:29:19;0.93;;;0.80;;
33074;SDS011;19433;51.292;6.868;2022-12-29T04:31:44;1.13;;;0.70;;
33074;SDS011;19433;51.292;6.868;2022-12-29T04:34:10;1.60;;;0.90;;
33074;SDS011;19433;51.292;6.868;2022-12-29T04:36:35;1.47;;;0.93;;
33074;SDS011;19433;51.292;6.868;2022-12-29T04:39:00;2.10;;;0.97;;
33074;SDS011;19433;51.292;6.868;2022-12-29T04:41:26;0.90;;;0.90;;
33074;SDS011;19433;51.292;6.868;2022-12-29T04:43:51;0.90;;;0.90;;
33074;SDS011;19433;51.292;6.868;2022-12-29T04:46:16;0.90;;;0.90;;
33074;SDS011;19433;51.292;6.868;2022-12-29T04:48:42;0.80;;;0.80;;
33074;SDS011;19433;51.292;6.868;2022-12-29T04:51:07;0.60;;;0.60;;
33074;SDS011;19433;51.292;6.868;2022-12-29T04:53:34;1.57;;;0.70;;
33074;SDS011;19433;51.292;6.868;2022-12-29T04:55:59;1.00;;;1.00;;
33074;SDS011;19433;51.292;6.868;2022-12-29T04:58:24;0.83;;;0.83;;
33074;SDS011;19433;51.292;6.868;2022-12-29T05:00:50;0.73;;;0.73;;
33074;SDS011;19433;51.292;6.868;2022-12-29T05:03:16;0.73;;;0.70;;
33074;SDS011;19433;51.292;6.868;2022-12-29T05:05:41;0.90;;;0.90;;
33074;SDS011;19433;51.292;6.868;2022-12-29T05:08:07;1.33;;;1.00;;
33074;SDS011;19433;51.292;6.868;2022-12-29T05:10:32;1.43;;;0.90;;
33074;SDS011;19433;51.292;6.868;2022-12-29T05:12:57;1.17;;;1.07;;
33074;SDS011;19433;51.292;6.868;2022-12-29T05:15:23;1.00;;;0.70;;
33074;SDS011;19433;51.292;6.868;2022-12-29T05:17:48;1.13;;;0.60;;
33074;SDS011;19433;51.292;6.868;2022-12-29T05:20:14;1.37;;;0.90;;
33074;SDS011;19433;51.292;6.868;2022-12-29T05:22:39;1.07;;;0.90;;
33074;SDS011;19433;51.292;6.868;2022-12-29T05:25:04;1.73;;;0.90;;
33074;SDS011;19433;51.292;6.868;2022-12-29T05:27:30;1.90;;;0.93;;
33074;SDS011;19433;51.292;6.868;2022-12-29T05:29:55;1.10;;;0.80;;
33074;SDS011;19433;51.292;6.868;2022-12-29T05:32:20;1.27;;;0.70;;
33074;SDS011;19433;51.292;6.868;2022-12-29T05:34:45;1.63;;;0.77;;
33074;SDS011;19433;51.292;6.868;2022-12-29T05:37:11;1.27;;;0.80;;
33074;SDS011;19433;51.292;6.868;2022-12-29T05:39:36;1.27;;;1.00;;
33074;SDS011;19433;51.292;6.868;2022-12-29T05:42:01;1.23;;;1.13;;
33074;SDS011;19433;51.292;6.868;2022-12-29T05:44:27;0.90;;;0.90;;
33074;SDS011;19433;51.292;6.868;2022-12-29T05:46:52;2.13;;;1.07;;
33074;SDS011;19433;51.292;6.868;2022-12-29T05:49:18;1.67;;;0.70;;
33074;SDS011;19433;51.292;6.868;2022-12-29T05:51:43;0.93;;;0.93;;
33074;SDS011;19433;51.292;6.868;2022-12-29T05:54:08;1.63;;;0.80;;
33074;SDS011;19433;51.292;6.868;2022-12-29T05:56:34;1.33;;;0.90;;
33074;SDS011;19433;51.292;6.868;2022-12-29T05:58:59;3.10;;;1.13;;
33074;SDS011;19433;51.292;6.868;2022-12-29T06:01:24;2.77;;;0.90;;
33074;SDS011;19433;51.292;6.868;2022-12-29T06:03:50;0.80;;;0.70;;
33074;SDS011;19433;51.292;6.868;2022-12-29T06:06:15;2.57;;;0.73;;
33074;SDS011;19433;51.292;6.868;2022-12-29T06:08:40;6.93;;;0.83;;
33074;SDS011;19433;51.292;6.868;2022-12-29T06:11:06;1.53;;;1.00;;
33074;SDS011;19433;51.292;6.868;2022-12-29T06:13:31;1.87;;;1.57;;
33074;SDS011;19433;51.292;6.868;2022-12-29T06:15:56;1.63;;;0.90;;
33074;SDS011;19433;51.292;6.868;2022-12-29T06:18:22;0.97;;;0.83;;
33074;SDS011;19433;51.292;6.868;2022-12-29T06:20:47;2.20;;;0.83;;
33074;SDS011;19433;51.292;6.868;2022-12-29T06:23:12;3.77;;;1.10;;
33074;SDS011;19433;51.292;6.868;2022-12-29T06:25:38;1.37;;;0.97;;
33074;SDS011;19433;51.292;6.868;2022-12-29T06:28:03;1.90;;;1.10;;
33074;SDS011;19433;51.292;6.868;2022-12-29T06:30:30;2.03;;;1.00;;
33074;SDS011;19433;51.292;6.868;2022-12-29T06:32:55;1.73;;;0.87;;
33074;SDS011;19433;51.292;6.868;2022-12-29T06:35:20;2.90;;;1.20;;
33074;SDS011;19433;51.292;6.868;2022-12-29T06:37:47;1.00;;;0.77;;
33074;SDS011;19433;51.292;6.868;2022-12-29T06:40:13;1.17;;;0.80;;
33074;SDS011;19433;51.292;6.868;2022-12-29T06:42:38;1.40;;;0.80;;
33074;SDS011;19433;51.292;6.868;2022-12-29T06:45:03;1.37;;;0.93;;
33074;SDS011;19433;51.292;6.868;2022-12-29T06:47:29;2.60;;;1.00;;
33074;SDS011;19433;51.292;6.868;2022-12-29T06:49:54;1.10;;;0.80;;
33074;SDS011;19433;51.292;6.868;2022-12-29T06:52:20;0.80;;;0.70;;
33074;SDS011;19433;51.292;6.868;2022-12-29T06:54:45;4.30;;;0.90;;
33074;SDS011;19433;51.292;6.868;2022-12-29T06:57:10;2.23;;;0.77;;
33074;SDS011;19433;51.292;6.868;2022-12-29T06:59:36;2.00;;;1.07;;
33074;SDS011;19433;51.292;6.868;2022-12-29T07:02:01;1.40;;;1.10;;
33074;SDS011;19433;51.292;6.868;2022-12-29T07:04:30;1.47;;;0.80;;
33074;SDS011;19433;51.292;6.868;2022-12-29T07:06:55;2.50;;;1.00;;
33074;SDS011;19433;51.292;6.868;2022-12-29T07:09:20;2.40;;;0.90;;
33074;SDS011;19433;51.292;6.868;2022-12-29T07:11:46;1.30;;;1.20;;
33074;SDS011;19433;51.292;6.868;2022-12-29T07:14:11;4.17;;;1.13;;
33074;SDS011;19433;51.292;6.868;2022-12-29T07:16:36;2.30;;;1.20;;
33074;SDS011;19433;51.292;6.868;2022-12-29T07:19:02;2.30;;;1.00;;
33074;SDS011;19433;51.292;6.868;2022-12-29T07:21:27;2.40;;;0.80;;
33074;SDS011;19433;51.292;6.868;2022-12-29T07:23:53;2.03;;;1.70;;
33074;SDS011;19433;51.292;6.868;2022-12-29T07:26:19;3.93;;;1.10;;
33074;SDS011;19433;51.292;6.868;2022-12-29T07:28:44;1.57;;;0.90;;
33074;SDS011;19433;51.292;6.868;2022-12-29T07:31:12;1.23;;;1.00;;
33074;SDS011;19433;51.292;6.868;2022-12-29T07:33:43;2.03;;;0.80;;
33074;SDS011;19433;51.292;6.868;2022-12-29T07:36:09;4.20;;;1.40;;
33074;SDS011;19433;51.292;6.868;2022-12-29T07:38:35;3.13;;;1.30;;
33074;SDS011;19433;51.292;6.868;2022-12-29T07:41:01;1.33;;;0.90;;
33074;SDS011;19433;51.292;6.868;2022-12-29T07:43:26;3.77;;;1.20;;
33074;SDS011;19433;51.292;6.868;2022-12-29T07:45:52;2.00;;;1.33;;
33074;SDS011;19433;51.292;6.868;2022-12-29T07:48:17;2.00;;;1.07;;
33074;SDS011;19433;51.292;6.868;2022-12-29T07:50:43;3.90;;;1.33;;
33074;SDS011;19433;51.292;6.868;2022-12-29T07:53:08;1.87;;;1.13;;
33074;SDS011;19433;51.292;6.868;2022-12-29T07:55:33;1.73;;;1.03;;
33074;SDS011;19433;51.292;6.868;2022-12-29T07:57:59;4.37;;;1.20;;
33074;SDS011;19433;51.292;6.868;2022-12-29T08:00:24;4.60;;;1.30;;
33074;SDS011;19433;51.292;6.868;2022-12-29T08:02:50;1.77;;;1.33;;
33074;SDS011;19433;51.292;6.868;2022-12-29T08:05:15;2.70;;;1.03;;
33074;SDS011;19433;51.292;6.868;2022-12-29T08:07:43;4.93;;;1.73;;
33074;SDS011;19433;51.292;6.868;2022-12-29T08:10:09;2.80;;;1.40;;
33074;SDS011;19433;51.292;6.868;2022-12-29T08:12:35;4.60;;;1.70;;
33074;SDS011;19433;51.292;6.868;2022-12-29T08:15:02;1.53;;;1.40;;
33074;SDS011;19433;51.292;6.868;2022-12-29T08:17:28;2.60;;;1.10;;
33074;SDS011;19433;51.292;6.868;2022-12-29T08:19:53;3.90;;;1.87;;
33074;SDS011;19433;51.292;6.868;2022-12-29T08:22:18;4.10;;;1.73;;
33074;SDS011;19433;51.292;6.868;2022-12-29T08:24:44;1.53;;;1.30;;
33074;SDS011;19433;51.292;6.868;2022-12-29T08:27:09;2.33;;;1.13;;
33074;SDS011;19433;51.292;6.868;2022-12-29T08:29:34;3.27;;;1.37;;
33074;SDS011;19433;51.292;6.868;2022-12-29T08:31:59;8.33;;;1.07;;
33074;SDS011;19433;51.292;6.868;2022-12-29T08:34:25;4.20;;;1.20;;
33074;SDS011;19433;51.292;6.868;2022-12-29T08:36:50;4.20;;;1.73;;
33074;SDS011;19433;51.292;6.868;2022-12-29T08:39:15;3.83;;;1.97;;
33074;SDS011;19433;51.292;6.868;2022-12-29T08:41:40;4.43;;;1.10;;
33074;SDS011;19433;51.292;6.868;2022-12-29T08:44:06;2.97;;;1.40;;
33074;SDS011;19433;51.292;6.868;2022-12-29T08:46:31;6.20;;;1.37;;
33074;SDS011;19433;51.292;6.868;2022-12-29T08:48:56;2.90;;;1.13;;
33074;SDS011;19433;51.292;6.868;2022-12-29T08:51:22;4.30;;;1.47;;
33074;SDS011;19433;51.292;6.868;2022-12-29T08:53:47;7.97;;;1.63;;
33074;SDS011;19433;51.292;6.868;2022-12-29T08:56:13;3.40;;;1.43;;
33074;SDS011;19433;51.292;6.868;2022-12-29T08:58:38;2.50;;;1.70;;
33074;SDS011;19433;51.292;6.868;2022-12-29T09:01:03;5.10;;;1.33;;
33074;SDS011;19433;51.292;6.868;2022-12-29T09:03:29;3.00;;;1.40;;
33074;SDS011;19433;51.292;6.868;2022-12-29T09:05:54;2.73;;;1.50;;
33074;SDS011;19433;51.292;6.868;2022-12-29T09:08:20;7.73;;;1.70;;
33074;SDS011;19433;51.292;6.868;2022-12-29T09:10:46;2.60;;;1.27;;
33074;SDS011;19433;51.292;6.868;2022-12-29T09:13:12;1.30;;;1.20;;
33074;SDS011;19433;51.292;6.868;2022-12-29T09:15:38;2.40;;;1.30;;
33074;SDS011;19433;51.292;6.868;2022-12-29T09:18:04;1.67;;;0.93;;
33074;SDS011;19433;51.292;6.868;2022-12-29T09:20:29;4.10;;;1.90;;
33074;SDS011;19433;51.292;6.868;2022-12-29T09:22:55;2.80;;;1.53;;
33074;SDS011;19433;51.292;6.868;2022-12-29T09:25:20;2.90;;;1.53;;
33074;SDS011;19433;51.292;6.868;2022-12-29T09:27:49;3.67;;;1.30;;
33074;SDS011;19433;51.292;6.868;2022-12-29T09:30:14;4.37;;;1.30;;
33074;SDS011;19433;51.292;6.868;2022-12-29T09:32:40;3.90;;;1.70;;
33074;SDS011;19433;51.292;6.868;2022-12-29T09:35:06;3.63;;;1.47;;
33074;SDS011;19433;51.292;6.868;2022-12-29T09:37:32;2.97;;;1.33;;
33074;SDS011;19433;51.292;6.868;2022-12-29T09:39:57;2.47;;;1.23;;
33074;SDS011;19433;51.292;6.868;2022-12-29T09:45:22;5.23;;;1.70;;
33074;SDS011;19433;51.292;6.868;2022-12-29T09:47:53;5.50;;;1.60;;
33074;SDS011;19433;51.292;6.868;2022-12-29T09:50:32;2.83;;;1.30;;
33074;SDS011;19433;51.292;6.868;2022-12-29T09:53:01;4.53;;;1.27;;
33074;SDS011;19433;51.292;6.868;2022-12-29T09:55:36;3.13;;;1.23;;
33074;SDS011;19433;51.292;6.868;2022-12-29T10:03:36;4.10;;;1.57;;
33074;SDS011;19433;51.292;6.868;2022-12-29T10:06:13;5.23;;;2.03;;
33074;SDS011;19433;51.292;6.868;2022-12-29T10:25:42;4.10;;;1.70;;
33074;SDS011;19433;51.292;6.868;2022-12-29T10:28:15;2.27;;;1.30;;
33074;SDS011;19433;51.292;6.868;2022-12-29T10:30:46;3.23;;;1.73;;
33074;SDS011;19433;51.292;6.868;2022-12-29T10:33:34;4.27;;;1.93;;
33074;SDS011;19433;51.292;6.868;2022-12-29T10:36:12;2.53;;;1.43;;
33074;SDS011;19433;51.292;6.868;2022-12-29T10:38:53;4.90;;;2.03;;
33074;SDS011;19433;51.292;6.868;2022-12-29T10:41:28;5.50;;;1.80;;
33074;SDS011;19433;51.292;6.868;2022-12-29T10:44:03;5.20;;;1.93;;
33074;SDS011;19433;51.292;6.868;2022-12-29T10:46:29;5.60;;;1.33;;
33074;SDS011;19433;51.292;6.868;2022-12-29T10:48:59;5.23;;;1.70;;
33074;SDS011;19433;51.292;6.868;2022-12-29T10:51:25;3.57;;;1.60;;
33074;SDS011;19433;51.292;6.868;2022-12-29T10:53:55;5.23;;;1.70;;
33074;SDS011;19433;51.292;6.868;2022-12-29T10:56:40;5.10;;;1.40;;
33074;SDS011;19433;51.292;6.868;2022-12-29T10:59:14;3.20;;;1.57;;
33074;SDS011;19433;51.292;6.868;2022-12-29T11:02:38;2.70;;;1.57;;
33074;SDS011;19433;51.292;6.868;2022-12-29T11:07:02;4.50;;;1.53;;
33074;SDS011;19433;51.292;6.868;2022-12-29T11:09:28;4.20;;;1.50;;
33074;SDS011;19433;51.292;6.868;2022-12-29T11:11:56;6.10;;;1.87;;
33074;SDS011;19433;51.292;6.868;2022-12-29T11:14:25;7.17;;;1.63;;
33074;SDS011;19433;51.292;6.868;2022-12-29T11:16:57;5.60;;;2.10;;
33074;SDS011;19433;51.292;6.868;2022-12-29T11:19:27;2.47;;;1.60;;
33074;SDS011;19433;51.292;6.868;2022-12-29T11:21:56;3.30;;;1.47;;
33074;SDS011;19433;51.292;6.868;2022-12-29T11:24:43;7.20;;;2.10;;
33074;SDS011;19433;51.292;6.868;2022-12-29T11:27:17;6.20;;;1.83;;
33074;SDS011;19433;51.292;6.868;2022-12-29T11:29:45;5.13;;;1.60;;
33074;SDS011;19433;51.292;6.868;2022-12-29T11:34:47;2.07;;;1.67;;
33074;SDS011;19433;51.292;6.868;2022-12-29T11:37:17;4.63;;;1.30;;
33074;SDS011;19433;51.292;6.868;2022-12-29T11:42:41;5.40;;;1.93;;
33074;SDS011;19433;51.292;6.868;2022-12-29T11:45:17;3.53;;;1.60;;
33074;SDS011;19433;51.292;6.868;2022-12-29T11:47:49;5.70;;;2.10;;
33074;SDS011;19433;51.292;6.868;2022-12-29T11:50:26;6.13;;;1.63;;
33074;SDS011;19433;51.292;6.868;2022-12-29T11:53:00;6.70;;;2.33;;
33074;SDS011;19433;51.292;6.868;2022-12-29T11:55:30;4.30;;;1.43;;
33074;SDS011;19433;51.292;6.868;2022-12-29T11:57:57;4.10;;;1.87;;
33074;SDS011;19433;51.292;6.868;2022-12-29T12:00:26;5.40;;;1.73;;
33074;SDS011;19433;51.292;6.868;2022-12-29T12:03:00;9.20;;;2.13;;
33074;SDS011;19433;51.292;6.868;2022-12-29T12:11:15;8.53;;;2.33;;
33074;SDS011;19433;51.292;6.868;2022-12-29T12:16:22;4.70;;;1.63;;
33074;SDS011;19433;51.292;6.868;2022-12-29T12:18:55;4.83;;;1.60;;
33074;SDS011;19433;51.292;6.868;2022-12-29T12:21:40;5.67;;;1.73;;
33074;SDS011;19433;51.292;6.868;2022-12-29T12:24:19;2.53;;;1.57;;
33074;SDS011;19433;51.292;6.868;2022-12-29T12:26:59;7.73;;;1.97;;
33074;SDS011;19433;51.292;6.868;2022-12-29T12:29:32;3.70;;;1.67;;
33074;SDS011;19433;51.292;6.868;2022-12-29T12:32:11;2.07;;;1.70;;
33074;SDS011;19433;51.292;6.868;2022-12-29T12:34:42;3.43;;;1.30;;
33074;SDS011;19433;51.292;6.868;2022-12-29T12:37:15;7.27;;;1.53;;
33074;SDS011;19433;51.292;6.868;2022-12-29T12:43:10;3.87;;;1.93;;
33074;SDS011;19433;51.292;6.868;2022-12-29T12:51:36;5.97;;;1.50;;
33074;SDS011;19433;51.292;6.868;2022-12-29T12:54:23;4.67;;;1.90;;
33074;SDS011;19433;51.292;6.868;2022-12-29T12:57:14;3.47;;;1.60;;
33074;SDS011;19433;51.292;6.868;2022-12-29T12:59:52;3.90;;;1.83;;
33074;SDS011;19433;51.292;6.868;2022-12-29T13:02:28;6.53;;;1.93;;
33074;SDS011;19433;51.292;6.868;2022-12-29T13:11:02;2.50;;;1.30;;
33074;SDS011;19433;51.292;6.868;2022-12-29T13:16:42;2.30;;;1.40;;
33074;SDS011;19433;51.292;6.868;2022-12-29T13:19:13;5.80;;;1.47;;
33074;SDS011;19433;51.292;6.868;2022-12-29T13:21:57;2.00;;;1.10;;
33074;SDS011;19433;51.292;6.868;2022-12-29T13:27:27;3.27;;;1.70;;
33074;SDS011;19433;51.292;6.868;2022-12-29T13:30:04;4.20;;;1.40;;
33074;SDS011;19433;51.292;6.868;2022-12-29T13:38:30;3.63;;;1.60;;
33074;SDS011;19433;51.292;6.868;2022-12-29T13:41:12;6.60;;;1.50;;
33074;SDS011;19433;51.292;6.868;2022-12-29T13:43:43;5.80;;;1.40;;
33074;SDS011;19433;51.292;6.868;2022-12-29T13:46:24;4.33;;;1.90;;
33074;SDS011;19433;51.292;6.868;2022-12-29T13:48:56;2.00;;;1.60;;
33074;SDS011;19433;51.292;6.868;2022-12-29T13:51:26;5.07;;;1.60;;
33074;SDS011;19433;51.292;6.868;2022-12-29T13:53:55;4.43;;;2.23;;
33074;SDS011;19433;51.292;6.868;2022-12-29T14:02:02;7.53;;;2.20;;
33074;SDS011;19433;51.292;6.868;2022-12-29T14:04:36;4.57;;;1.53;;
33074;SDS011;19433;51.292;6.868;2022-12-29T14:07:21;4.60;;;2.27;;
33074;SDS011;19433;51.292;6.868;2022-12-29T14:09:56;2.70;;;1.37;;
33074;SDS011;19433;51.292;6.868;2022-12-29T14:17:35;4.67;;;2.00;;
33074;SDS011;19433;51.292;6.868;2022-12-29T14:20:02;3.50;;;1.50;;
33074;SDS011;19433;51.292;6.868;2022-12-29T14:22:28;6.60;;;1.90;;
33074;SDS011;19433;51.292;6.868;2022-12-29T14:24:54;2.90;;;1.57;;
33074;SDS011;19433;51.292;6.868;2022-12-29T14:29:45;5.07;;;1.53;;
33074;SDS011;19433;51.292;6.868;2022-12-29T14:34:50;4.40;;;1.50;;
33074;SDS011;19433;51.292;6.868;2022-12-29T14:39:48;5.57;;;1.40;;
33074;SDS011;19433;51.292;6.868;2022-12-29T14:42:14;4.40;;;1.50;;
33074;SDS011;19433;51.292;6.868;2022-12-29T14:44:47;7.67;;;1.70;;
33074;SDS011;19433;51.292;6.868;2022-12-29T14:47:17;4.03;;;1.70;;
33074;SDS011;19433;51.292;6.868;2022-12-29T14:49:47;4.67;;;1.73;;
33074;SDS011;19433;51.292;6.868;2022-12-29T14:52:15;3.73;;;1.70;;
33074;SDS011;19433;51.292;6.868;2022-12-29T14:54:46;7.73;;;1.53;;
33074;SDS011;19433;51.292;6.868;2022-12-29T15:00:42;5.10;;;1.63;;
33074;SDS011;19433;51.292;6.868;2022-12-29T15:02:59;5.33;;;1.63;;
33074;SDS011;19433;51.292;6.868;2022-12-29T15:05:44;4.17;;;2.00;;
33074;SDS011;19433;51.292;6.868;2022-12-29T15:08:16;3.87;;;1.37;;
33074;SDS011;19433;51.292;6.868;2022-12-29T15:10:50;6.27;;;1.73;;
33074;SDS011;19433;51.292;6.868;2022-12-29T15:13:20;2.77;;;1.27;;
33074;SDS011;19433;51.292;6.868;2022-12-29T15:15:47;3.80;;;2.20;;
33074;SDS011;19433;51.292;6.868;2022-12-29T15:18:14;1.90;;;1.23;;
33074;SDS011;19433;51.292;6.868;2022-12-29T15:21:11;5.03;;;1.80;;
33074;SDS011;19433;51.292;6.868;2022-12-29T15:23:40;5.87;;;1.50;;
33074;SDS011;19433;51.292;6.868;2022-12-29T15:26:09;4.30;;;1.60;;
33074;SDS011;19433;51.292;6.868;2022-12-29T15:31:06;4.73;;;1.67;;
33074;SDS011;19433;51.292;6.868;2022-12-29T15:33:37;6.33;;;2.17;;
33074;SDS011;19433;51.292;6.868;2022-12-29T15:36:05;4.20;;;1.87;;
33074;SDS011;19433;51.292;6.868;2022-12-29T15:38:36;4.47;;;1.40;;
33074;SDS011;19433;51.292;6.868;2022-12-29T15:41:14;2.93;;;1.50;;
33074;SDS011;19433;51.292;6.868;2022-12-29T15:43:45;5.20;;;2.03;;
33074;SDS011;19433;51.292;6.868;2022-12-29T15:46:23;5.23;;;2.07;;
33074;SDS011;19433;51.292;6.868;2022-12-29T15:48:48;3.10;;;1.90;;
33074;SDS011;19433;51.292;6.868;2022-12-29T15:51:18;3.63;;;1.70;;
33074;SDS011;19433;51.292;6.868;2022-12-29T15:53:48;4.30;;;1.50;;
33074;SDS011;19433;51.292;6.868;2022-12-29T15:56:15;6.43;;;1.30;;
33074;SDS011;19433;51.292;6.868;2022-12-29T15:58:44;5.43;;;1.60;;
33074;SDS011;19433;51.292;6.868;2022-12-29T16:01:18;2.87;;;2.00;;
33074;SDS011;19433;51.292;6.868;2022-12-29T16:03:49;4.50;;;1.70;;
33074;SDS011;19433;51.292;6.868;2022-12-29T16:06:26;4.10;;;1.90;;
33074;SDS011;19433;51.292;6.868;2022-12-29T16:11:38;5.13;;;1.67;;
33074;SDS011;19433;51.292;6.868;2022-12-29T16:14:10;5.80;;;2.07;;
33074;SDS011;19433;51.292;6.868;2022-12-29T16:16:43;6.77;;;2.00;;
33074;SDS011;19433;51.292;6.868;2022-12-29T16:19:27;3.90;;;1.47;;
33074;SDS011;19433;51.292;6.868;2022-12-29T16:21:57;5.37;;;2.20;;
33074;SDS011;19433;51.292;6.868;2022-12-29T16:24:25;6.33;;;1.70;;
33074;SDS011;19433;51.292;6.868;2022-12-29T16:26:58;3.20;;;1.40;;
33074;SDS011;19433;51.292;6.868;2022-12-29T16:29:31;2.20;;;1.40;;
33074;SDS011;19433;51.292;6.868;2022-12-29T16:31:58;9.37;;;1.90;;
33074;SDS011;19433;51.292;6.868;2022-12-29T16:34:49;3.87;;;2.20;;
33074;SDS011;19433;51.292;6.868;2022-12-29T16:37:28;5.90;;;2.20;;
33074;SDS011;19433;51.292;6.868;2022-12-29T16:39:55;4.93;;;1.60;;
33074;SDS011;19433;51.292;6.868;2022-12-29T16:42:33;9.23;;;2.53;;
33074;SDS011;19433;51.292;6.868;2022-12-29T16:50:32;5.30;;;2.20;;
33074;SDS011;19433;51.292;6.868;2022-12-29T16:53:00;4.70;;;1.93;;
33074;SDS011;19433;51.292;6.868;2022-12-29T16:55:27;5.53;;;2.00;;
33074;SDS011;19433;51.292;6.868;2022-12-29T16:57:53;3.93;;;2.20;;
33074;SDS011;19433;51.292;6.868;2022-12-29T17:00:22;7.83;;;2.20;;
33074;SDS011;19433;51.292;6.868;2022-12-29T17:02:49;7.77;;;2.00;;
33074;SDS011;19433;51.292;6.868;2022-12-29T17:05:19;7.53;;;2.20;;
33074;SDS011;19433;51.292;6.868;2022-12-29T17:07:45;6.20;;;2.47;;
33074;SDS011;19433;51.292;6.868;2022-12-29T17:10:11;9.93;;;2.23;;
33074;SDS011;19433;51.292;6.868;2022-12-29T17:12:39;5.97;;;2.20;;